sensor_id;sensor_type;location;lat;lon;timestamp;pressure;altitude;pressure_sealevel;temperature;humidity
15050;BME280;7622;42.724;23.250;2023-04-26T00:00:52;93753.94;;;10.45;100.00
15050;BME280;7622;42.724;23.250;2023-04-26T00:03:19;93748.44;;;10.32;100.00
15050;BME280;7622;42.724;23.250;2023-04-26T00:05:48;93740.50;;;10.33;100.00
15050;BME280;7622;42.724;23.250;2023-04-26T00:08:15;93740.50;;;10.17;100.00
15050;BME280;7622;42.724;23.250;2023-04-26T00:10:42;93734.66;;;10.07;100.00
15050;BME280;7622;42.724;23.250;2023-04-26T00:13:09;93738.06;;;9.83;100.00
15050;BME280;7622;42.724;23.250;2023-04-26T00:15:36;93734.66;;;10.07;100.00
15050;BME280;7622;42.724;23.250;2023-04-26T00:18:02;93717.97;;;9.93;100.00
15050;BME280;7622;42.724;23.250;2023-04-26T00:20:29;93728.84;;;9.80;100.00
15050;BME280;7622;42.724;23.250;2023-04-26T00:22:57;93722.66;;;9.98;100.00
15050;BME280;7622;42.724;23.250;2023-04-26T00:25:24;93720.72;;;9.92;100.00
15050;BME280;7622;42.724;23.250;2023-04-26T00:27:51;93718.47;;;9.88;100.00
15050;BME280;7622;42.724;23.250;2023-04-26T00:30:18;93725.09;;;9.75;100.00
15050;BME280;7622;42.724;23.250;2023-04-26T00:32:45;93723.47;;;9.74;100.00
15050;BME280;7622;42.724;23.250;2023-04-26T00:35:12;93718.44;;;9.97;100.00
15050;BME280;7622;42.724;23.250;2023-04-26T00:37:39;93718.63;;;9.95;100.00
15050;BME280;7622;42.724;23.250;2023-04-26T00:40:08;93717.97;;;9.93;100.00
15050;BME280;7622;42.724;23.250;2023-04-26T00:42:36;93709.69;;;9.98;100.00
15050;BME280;7622;42.724;23.250;2023-04-26T00:45:04;93714.72;;;9.91;100.00
15050;BME280;7622;42.724;23.250;2023-04-26T00:47:31;93716.50;;;9.82;100.00
15050;BME280;7622;42.724;23.250;2023-04-26T00:49:59;93720.56;;;9.85;100.00
15050;BME280;7622;42.724;23.250;2023-04-26T00:52:27;93697.38;;;9.67;100.00
15050;BME280;7622;42.724;23.250;2023-04-26T00:54:54;93714.06;;;9.89;100.00
15050;BME280;7622;42.724;23.250;2023-04-26T00:57:23;93720.41;;;9.78;100.00
15050;BME280;7622;42.724;23.250;2023-04-26T00:59:50;93707.59;;;9.77;100.00
15050;BME280;7622;42.724;23.250;2023-04-26T01:02:17;93718.47;;;9.80;100.00
15050;BME280;7622;42.724;23.250;2023-04-26T01:04:44;93721.03;;;9.72;100.00
15050;BME280;7622;42.724;23.250;2023-04-26T01:07:10;93660.72;;;9.22;100.00
15050;BME280;7622;42.724;23.250;2023-04-26T01:09:38;93727.84;;;9.57;100.00
15050;BME280;7622;42.724;23.250;2023-04-26T01:12:06;93733.00;;;9.57;100.00
15050;BME280;7622;42.724;23.250;2023-04-26T01:14:36;93726.22;;;9.56;100.00
15050;BME280;7622;42.724;23.250;2023-04-26T01:17:03;93728.47;;;9.43;100.00
15050;BME280;7622;42.724;23.250;2023-04-26T01:19:31;93731.22;;;9.33;100.00
15050;BME280;7622;42.724;23.250;2023-04-26T01:21:57;93718.25;;;9.41;100.00
15050;BME280;7622;42.724;23.250;2023-04-26T01:24:25;93702.38;;;9.44;100.00
15050;BME280;7622;42.724;23.250;2023-04-26T01:26:52;93699.94;;;9.43;100.00
15050;BME280;7622;42.724;23.250;2023-04-26T01:29:20;93712.06;;;9.34;100.00
15050;BME280;7622;42.724;23.250;2023-04-26T01:31:48;93718.44;;;9.56;100.00
15050;BME280;7622;42.724;23.250;2023-04-26T01:34:15;93725.22;;;9.49;100.00
15050;BME280;7622;42.724;23.250;2023-04-26T01:36:42;93729.75;;;9.55;100.00
15050;BME280;7622;42.724;23.250;2023-04-26T01:39:09;93723.44;;;9.49;100.00
15050;BME280;7622;42.724;23.250;2023-04-26T01:41:37;93721.03;;;9.56;100.00
15050;BME280;7622;42.724;23.250;2023-04-26T01:44:04;93727.00;;;9.48;100.00
15050;BME280;7622;42.724;23.250;2023-04-26T01:46:31;93721.66;;;9.50;100.00
15050;BME280;7622;42.724;23.250;2023-04-26T01:48:58;93734.31;;;9.61;100.00
15050;BME280;7622;42.724;23.250;2023-04-26T01:51:24;93728.81;;;9.64;100.00
15050;BME280;7622;42.724;23.250;2023-04-26T01:53:51;93728.50;;;9.67;100.00
15050;BME280;7622;42.724;23.250;2023-04-26T01:56:18;93712.78;;;9.61;100.00
15050;BME280;7622;42.724;23.250;2023-04-26T01:58:47;93714.22;;;9.55;100.00
15050;BME280;7622;42.724;23.250;2023-04-26T02:01:13;93718.13;;;9.59;100.00
15050;BME280;7622;42.724;23.250;2023-04-26T02:03:40;93708.38;;;9.37;100.00
15050;BME280;7622;42.724;23.250;2023-04-26T02:06:07;93705.78;;;9.37;100.00
15050;BME280;7622;42.724;23.250;2023-04-26T02:08:34;93687.16;;;9.25;100.00
15050;BME280;7622;42.724;23.250;2023-04-26T02:11:01;93698.31;;;9.26;100.00
15050;BME280;7622;42.724;23.250;2023-04-26T02:13:28;93708.34;;;9.13;100.00
15050;BME280;7622;42.724;23.250;2023-04-26T02:15:56;93702.75;;;8.91;100.00
15050;BME280;7622;42.724;23.250;2023-04-26T02:18:23;93695.81;;;8.92;100.00
15050;BME280;7622;42.724;23.250;2023-04-26T02:20:50;93693.03;;;8.93;100.00
15050;BME280;7622;42.724;23.250;2023-04-26T02:23:17;93692.63;;;8.64;100.00
15050;BME280;7622;42.724;23.250;2023-04-26T02:25:44;93691.16;;;8.61;100.00
15050;BME280;7622;42.724;23.250;2023-04-26T02:28:11;93702.03;;;8.73;100.00
15050;BME280;7622;42.724;23.250;2023-04-26T02:30:38;93690.53;;;8.67;100.00
15050;BME280;7622;42.724;23.250;2023-04-26T02:33:06;93706.28;;;8.82;100.00
15050;BME280;7622;42.724;23.250;2023-04-26T02:35:34;93703.19;;;8.79;100.00
15050;BME280;7622;42.724;23.250;2023-04-26T02:38:01;93712.28;;;8.83;100.00
15050;BME280;7622;42.724;23.250;2023-04-26T02:40:28;93709.03;;;8.81;100.00
15050;BME280;7622;42.724;23.250;2023-04-26T02:42:55;93714.44;;;9.03;100.00
15050;BME280;7622;42.724;23.250;2023-04-26T02:45:22;93718.97;;;9.01;100.00
15050;BME280;7622;42.724;23.250;2023-04-26T02:47:49;93708.28;;;8.96;100.00
15050;BME280;7622;42.724;23.250;2023-04-26T02:50:17;93696.09;;;8.89;100.00
15050;BME280;7622;42.724;23.250;2023-04-26T02:52:44;93698.19;;;8.85;100.00
15050;BME280;7622;42.724;23.250;2023-04-26T02:55:11;93699.19;;;8.92;100.00
15050;BME280;7622;42.724;23.250;2023-04-26T02:57:38;93676.53;;;8.94;100.00
15050;BME280;7622;42.724;23.250;2023-04-26T03:00:07;93684.66;;;9.07;100.00
15050;BME280;7622;42.724;23.250;2023-04-26T03:02:34;93683.88;;;9.23;100.00
15050;BME280;7622;42.724;23.250;2023-04-26T03:05:01;93676.59;;;9.27;100.00
15050;BME280;7622;42.724;23.250;2023-04-26T03:07:29;93679.81;;;9.04;100.00
15050;BME280;7622;42.724;23.250;2023-04-26T03:09:57;93683.38;;;9.03;100.00
15050;BME280;7622;42.724;23.250;2023-04-26T03:12:24;93678.50;;;9.08;100.00
15050;BME280;7622;42.724;23.250;2023-04-26T03:14:51;93674.00;;;9.11;100.00
15050;BME280;7622;42.724;23.250;2023-04-26T03:17:18;93683.75;;;9.25;100.00
15050;BME280;7622;42.724;23.250;2023-04-26T03:19:44;93683.72;;;9.17;100.00
15050;BME280;7622;42.724;23.250;2023-04-26T03:22:11;93666.69;;;9.06;100.00
15050;BME280;7622;42.724;23.250;2023-04-26T03:24:42;93682.72;;;9.01;100.00
15050;BME280;7622;42.724;23.250;2023-04-26T03:27:08;93672.84;;;8.97;100.00
15050;BME280;7622;42.724;23.250;2023-04-26T03:29:35;93673.84;;;9.12;100.00
15050;BME280;7622;42.724;23.250;2023-04-26T03:32:02;93680.00;;;9.19;100.00
15050;BME280;7622;42.724;23.250;2023-04-26T03:34:30;93681.44;;;9.05;100.00
15050;BME280;7622;42.724;23.250;2023-04-26T03:36:57;93675.13;;;9.08;100.00
15050;BME280;7622;42.724;23.250;2023-04-26T03:39:24;93680.97;;;9.18;100.00
15050;BME280;7622;42.724;23.250;2023-04-26T03:41:52;93689.47;;;8.94;100.00
15050;BME280;7622;42.724;23.250;2023-04-26T03:44:19;93688.28;;;9.55;100.00
15050;BME280;7622;42.724;23.250;2023-04-26T03:46:46;93697.53;;;9.90;100.00
15050;BME280;7622;42.724;23.250;2023-04-26T03:49:12;93694.78;;;9.75;100.00
15050;BME280;7622;42.724;23.250;2023-04-26T03:51:39;93698.19;;;9.92;100.00
15050;BME280;7622;42.724;23.250;2023-04-26T03:54:06;93699.16;;;9.91;100.00
15050;BME280;7622;42.724;23.250;2023-04-26T03:56:33;93703.84;;;10.04;100.00
15050;BME280;7622;42.724;23.250;2023-04-26T03:59:02;93720.53;;;10.34;100.00
15050;BME280;7622;42.724;23.250;2023-04-26T04:01:29;93709.38;;;10.17;100.00
15050;BME280;7622;42.724;23.250;2023-04-26T04:03:56;93723.53;;;10.70;100.00
15050;BME280;7622;42.724;23.250;2023-04-26T04:06:22;93716.59;;;10.54;100.00
15050;BME280;7622;42.724;23.250;2023-04-26T04:08:49;93711.38;;;10.70;100.00
15050;BME280;7622;42.724;23.250;2023-04-26T04:11:16;93714.44;;;10.74;100.00
15050;BME280;7622;42.724;23.250;2023-04-26T04:13:43;93726.41;;;10.83;100.00
15050;BME280;7622;42.724;23.250;2023-04-26T04:16:11;93722.84;;;11.23;100.00
15050;BME280;7622;42.724;23.250;2023-04-26T04:18:38;93721.59;;;11.11;100.00
15050;BME280;7622;42.724;23.250;2023-04-26T04:21:05;93715.88;;;11.15;100.00
15050;BME280;7622;42.724;23.250;2023-04-26T04:23:32;93721.59;;;11.11;100.00
15050;BME280;7622;42.724;23.250;2023-04-26T04:25:58;93719.66;;;11.35;100.00
15050;BME280;7622;42.724;23.250;2023-04-26T04:28:25;93710.66;;;11.77;100.00
15050;BME280;7622;42.724;23.250;2023-04-26T04:30:52;93704.06;;;11.89;100.00
15050;BME280;7622;42.724;23.250;2023-04-26T04:33:20;93714.22;;;11.76;100.00
15050;BME280;7622;42.724;23.250;2023-04-26T04:35:47;93718.19;;;11.95;100.00
15050;BME280;7622;42.724;23.250;2023-04-26T04:38:13;93720.81;;;12.09;100.00
15050;BME280;7622;42.724;23.250;2023-04-26T04:40:40;93723.50;;;12.01;100.00
15050;BME280;7622;42.724;23.250;2023-04-26T04:43:08;93737.41;;;12.46;100.00
15050;BME280;7622;42.724;23.250;2023-04-26T04:45:34;93732.03;;;12.62;100.00
15050;BME280;7622;42.724;23.250;2023-04-26T04:48:01;93736.06;;;13.09;100.00
15050;BME280;7622;42.724;23.250;2023-04-26T04:50:30;93728.47;;;12.92;100.00
15050;BME280;7622;42.724;23.250;2023-04-26T04:52:57;93723.16;;;13.15;100.00
15050;BME280;7622;42.724;23.250;2023-04-26T04:55:24;93679.59;;;12.65;100.00
15050;BME280;7622;42.724;23.250;2023-04-26T04:57:51;93726.47;;;12.94;100.00
15050;BME280;7622;42.724;23.250;2023-04-26T05:00:18;93724.31;;;12.83;100.00
15050;BME280;7622;42.724;23.250;2023-04-26T05:02:45;93727.72;;;12.69;100.00
15050;BME280;7622;42.724;23.250;2023-04-26T05:05:12;93731.66;;;12.36;100.00
15050;BME280;7622;42.724;23.250;2023-04-26T05:07:40;93729.66;;;12.38;100.00
15050;BME280;7622;42.724;23.250;2023-04-26T05:10:07;93728.75;;;12.16;100.00
15050;BME280;7622;42.724;23.250;2023-04-26T05:12:34;93731.34;;;12.16;100.00
15050;BME280;7622;42.724;23.250;2023-04-26T05:15:01;93723.06;;;12.12;100.00
15050;BME280;7622;42.724;23.250;2023-04-26T05:17:28;93732.34;;;12.30;100.00
15050;BME280;7622;42.724;23.250;2023-04-26T05:19:56;93731.69;;;12.13;100.00
15050;BME280;7622;42.724;23.250;2023-04-26T05:22:23;93728.06;;;12.37;100.00
15050;BME280;7622;42.724;23.250;2023-04-26T05:24:51;93730.22;;;12.10;100.00
15050;BME280;7622;42.724;23.250;2023-04-26T05:27:18;93732.25;;;12.38;100.00
15050;BME280;7622;42.724;23.250;2023-04-26T05:29:45;93736.59;;;12.31;100.00
15050;BME280;7622;42.724;23.250;2023-04-26T05:32:11;93736.91;;;12.65;100.00
15050;BME280;7622;42.724;23.250;2023-04-26T05:34:38;93737.97;;;12.56;100.00
15050;BME280;7622;42.724;23.250;2023-04-26T05:37:05;93732.22;;;12.75;100.00
15050;BME280;7622;42.724;23.250;2023-04-26T05:39:32;93742.66;;;13.19;100.00
15050;BME280;7622;42.724;23.250;2023-04-26T05:42:00;93742.75;;;12.96;100.00
15050;BME280;7622;42.724;23.250;2023-04-26T05:44:27;93747.06;;;13.33;100.00
15050;BME280;7622;42.724;23.250;2023-04-26T05:46:54;93746.59;;;13.30;100.00
15050;BME280;7622;42.724;23.250;2023-04-26T05:49:21;93749.72;;;13.55;100.00
15050;BME280;7622;42.724;23.250;2023-04-26T05:51:48;93750.34;;;13.42;100.00
15050;BME280;7622;42.724;23.250;2023-04-26T05:54:14;93753.97;;;13.41;100.00
15050;BME280;7622;42.724;23.250;2023-04-26T05:56:41;93756.13;;;12.93;100.00
15050;BME280;7622;42.724;23.250;2023-04-26T05:59:09;93757.34;;;13.20;100.00
15050;BME280;7622;42.724;23.250;2023-04-26T06:01:37;93764.41;;;13.12;100.00
15050;BME280;7622;42.724;23.250;2023-04-26T06:04:04;93746.09;;;13.20;100.00
15050;BME280;7622;42.724;23.250;2023-04-26T06:06:31;93761.19;;;13.24;100.00
15050;BME280;7622;42.724;23.250;2023-04-26T06:08:58;93764.94;;;13.22;100.00
15050;BME280;7622;42.724;23.250;2023-04-26T06:11:24;93764.22;;;12.84;100.00
15050;BME280;7622;42.724;23.250;2023-04-26T06:13:52;93764.69;;;13.17;100.00
15050;BME280;7622;42.724;23.250;2023-04-26T06:16:21;93768.53;;;13.21;100.00
15050;BME280;7622;42.724;23.250;2023-04-26T06:18:47;93761.09;;;13.68;100.00
15050;BME280;7622;42.724;23.250;2023-04-26T06:21:14;93761.59;;;13.78;100.00
15050;BME280;7622;42.724;23.250;2023-04-26T06:23:41;93765.69;;;13.66;100.00
15050;BME280;7622;42.724;23.250;2023-04-26T06:26:08;93770.28;;;13.64;100.00
15050;BME280;7622;42.724;23.250;2023-04-26T06:28:36;93769.69;;;13.84;100.00
15050;BME280;7622;42.724;23.250;2023-04-26T06:31:04;93768.63;;;13.78;100.00
15050;BME280;7622;42.724;23.250;2023-04-26T06:33:32;93774.03;;;13.98;100.00
15050;BME280;7622;42.724;23.250;2023-04-26T06:35:59;93778.94;;;13.50;100.00
15050;BME280;7622;42.724;23.250;2023-04-26T06:38:25;93775.16;;;13.67;100.00
15050;BME280;7622;42.724;23.250;2023-04-26T06:40:52;93771.91;;;13.65;100.00
15050;BME280;7622;42.724;23.250;2023-04-26T06:43:19;93772.25;;;13.41;100.00
15050;BME280;7622;42.724;23.250;2023-04-26T06:45:46;93775.53;;;13.50;100.00
15050;BME280;7622;42.724;23.250;2023-04-26T06:48:12;93781.31;;;13.30;100.00
15050;BME280;7622;42.724;23.250;2023-04-26T06:50:40;93773.88;;;13.63;100.00
15050;BME280;7622;42.724;23.250;2023-04-26T06:53:07;93774.03;;;13.26;100.00
15050;BME280;7622;42.724;23.250;2023-04-26T06:55:34;93773.41;;;13.24;100.00
15050;BME280;7622;42.724;23.250;2023-04-26T06:58:01;93780.13;;;13.48;100.00
15050;BME280;7622;42.724;23.250;2023-04-26T07:00:28;93770.28;;;13.64;100.00
15050;BME280;7622;42.724;23.250;2023-04-26T07:02:55;93760.06;;;14.05;100.00
15050;BME280;7622;42.724;23.250;2023-04-26T07:05:22;93770.56;;;14.54;100.00
15050;BME280;7622;42.724;23.250;2023-04-26T07:07:50;93774.81;;;14.55;100.00
15050;BME280;7622;42.724;23.250;2023-04-26T07:10:17;93772.72;;;14.44;100.00
15050;BME280;7622;42.724;23.250;2023-04-26T07:12:45;93776.56;;;14.48;100.00
15050;BME280;7622;42.724;23.250;2023-04-26T07:15:12;93768.31;;;15.07;100.00
15050;BME280;7622;42.724;23.250;2023-04-26T07:17:39;93772.16;;;14.77;100.00
15050;BME280;7622;42.724;23.250;2023-04-26T07:20:07;93775.16;;;14.52;100.00
15050;BME280;7622;42.724;23.250;2023-04-26T07:22:34;93775.00;;;15.16;100.00
15050;BME280;7622;42.724;23.250;2023-04-26T07:25:02;93768.91;;;15.09;100.00
15050;BME280;7622;42.724;23.250;2023-04-26T07:27:29;93760.88;;;14.76;100.00
15050;BME280;7622;42.724;23.250;2023-04-26T07:29:56;93773.72;;;14.71;100.00
15050;BME280;7622;42.724;23.250;2023-04-26T07:32:23;93775.69;;;14.41;100.00
15050;BME280;7622;42.724;23.250;2023-04-26T07:34:50;93781.28;;;14.17;100.00
15050;BME280;7622;42.724;23.250;2023-04-26T07:37:17;93778.16;;;14.07;100.00
15050;BME280;7622;42.724;23.250;2023-04-26T07:39:44;93791.75;;;13.81;100.00
15050;BME280;7622;42.724;23.250;2023-04-26T07:42:12;93789.38;;;13.50;100.00
15050;BME280;7622;42.724;23.250;2023-04-26T07:44:39;93797.56;;;13.62;100.00
15050;BME280;7622;42.724;23.250;2023-04-26T07:47:10;93801.63;;;13.35;100.00
15050;BME280;7622;42.724;23.250;2023-04-26T07:49:37;93793.06;;;12.97;100.00
15050;BME280;7622;42.724;23.250;2023-04-26T07:52:04;93795.50;;;12.98;100.00
15050;BME280;7622;42.724;23.250;2023-04-26T07:54:31;93802.84;;;12.80;100.00
15050;BME280;7622;42.724;23.250;2023-04-26T07:56:58;93801.88;;;13.11;100.00
15050;BME280;7622;42.724;23.250;2023-04-26T07:59:26;93798.28;;;12.97;100.00
15050;BME280;7622;42.724;23.250;2023-04-26T08:01:53;93801.00;;;13.03;100.00
15050;BME280;7622;42.724;23.250;2023-04-26T08:04:29;93800.84;;;13.20;100.00
15050;BME280;7622;42.724;23.250;2023-04-26T08:06:56;93799.41;;;13.32;100.00
15050;BME280;7622;42.724;23.250;2023-04-26T08:09:23;93786.50;;;13.60;100.00
15050;BME280;7622;42.724;23.250;2023-04-26T08:11:50;93793.47;;;13.74;100.00
15050;BME280;7622;42.724;23.250;2023-04-26T08:14:16;93789.53;;;13.63;100.00
15050;BME280;7622;42.724;23.250;2023-04-26T08:16:45;93788.28;;;13.95;100.00
15050;BME280;7622;42.724;23.250;2023-04-26T08:19:11;93781.53;;;14.01;100.00
15050;BME280;7622;42.724;23.250;2023-04-26T08:21:38;93787.97;;;14.05;100.00
15050;BME280;7622;42.724;23.250;2023-04-26T08:24:05;93796.69;;;14.12;100.00
15050;BME280;7622;42.724;23.250;2023-04-26T08:26:32;93783.63;;;14.54;94.91
15050;BME280;7622;42.724;23.250;2023-04-26T08:28:59;93791.97;;;14.92;88.81
15050;BME280;7622;42.724;23.250;2023-04-26T08:31:26;93780.94;;;14.97;83.37
15050;BME280;7622;42.724;23.250;2023-04-26T08:33:54;93789.13;;;14.94;82.23
15050;BME280;7622;42.724;23.250;2023-04-26T08:36:21;93791.31;;;15.18;78.52
15050;BME280;7622;42.724;23.250;2023-04-26T08:38:48;93782.41;;;15.06;80.14
15050;BME280;7622;42.724;23.250;2023-04-26T08:41:19;93790.34;;;15.26;74.77
15050;BME280;7622;42.724;23.250;2023-04-26T08:43:48;93795.00;;;15.71;72.15
15050;BME280;7622;42.724;23.250;2023-04-26T08:46:18;93793.31;;;15.16;72.54
15050;BME280;7622;42.724;23.250;2023-04-26T08:48:57;93792.63;;;15.42;73.89
15050;BME280;7622;42.724;23.250;2023-04-26T08:51:31;93786.94;;;15.66;74.37
15050;BME280;7622;42.724;23.250;2023-04-26T08:53:59;93793.06;;;15.87;72.88
15050;BME280;7622;42.724;23.250;2023-04-26T08:56:27;93791.75;;;15.63;73.40
15050;BME280;7622;42.724;23.250;2023-04-26T08:58:54;93796.44;;;15.74;72.98
15050;BME280;7622;42.724;23.250;2023-04-26T09:01:21;93791.22;;;15.74;70.81
15050;BME280;7622;42.724;23.250;2023-04-26T09:03:50;93787.97;;;15.72;67.50
15050;BME280;7622;42.724;23.250;2023-04-26T09:06:18;93796.44;;;15.74;69.84
15050;BME280;7622;42.724;23.250;2023-04-26T09:08:46;93798.50;;;15.85;69.04
15050;BME280;7622;42.724;23.250;2023-04-26T09:11:13;93791.16;;;15.61;67.76
15050;BME280;7622;42.724;23.250;2023-04-26T09:13:40;93796.25;;;15.34;67.79
15050;BME280;7622;42.724;23.250;2023-04-26T09:16:07;93799.72;;;15.07;68.70
15050;BME280;7622;42.724;23.250;2023-04-26T09:18:34;93802.06;;;15.02;71.79
15050;BME280;7622;42.724;23.250;2023-04-26T09:21:03;93794.19;;;15.30;71.79
15050;BME280;7622;42.724;23.250;2023-04-26T09:23:36;93776.91;;;15.35;69.34
15050;BME280;7622;42.724;23.250;2023-04-26T09:26:23;93804.13;;;15.41;66.83
15050;BME280;7622;42.724;23.250;2023-04-26T09:29:10;93810.72;;;15.37;66.69
15050;BME280;7622;42.724;23.250;2023-04-26T09:31:38;93801.06;;;15.37;66.41
15050;BME280;7622;42.724;23.250;2023-04-26T09:34:05;93801.06;;;15.37;65.95
15050;BME280;7622;42.724;23.250;2023-04-26T09:36:45;93808.97;;;15.85;66.11
15050;BME280;7622;42.724;23.250;2023-04-26T09:39:28;93805.59;;;16.04;64.06
15050;BME280;7622;42.724;23.250;2023-04-26T09:41:57;93803.41;;;16.14;60.56
15050;BME280;7622;42.724;23.250;2023-04-26T09:44:27;93794.97;;;16.39;60.09
15050;BME280;7622;42.724;23.250;2023-04-26T09:47:01;93742.34;;;16.14;59.52
15050;BME280;7622;42.724;23.250;2023-04-26T09:49:43;93790.59;;;16.79;57.82
15050;BME280;7622;42.724;23.250;2023-04-26T09:52:11;93640.16;;;15.94;56.26
15050;BME280;7622;42.724;23.250;2023-04-26T09:54:44;93710.72;;;16.22;56.89
15050;BME280;7622;42.724;23.250;2023-04-26T09:57:12;93801.06;;;17.05;54.37
15050;BME280;7622;42.724;23.250;2023-04-26T09:59:40;93715.84;;;17.21;53.26
15050;BME280;7622;42.724;23.250;2023-04-26T10:02:12;93722.41;;;17.43;51.63
15050;BME280;7622;42.724;23.250;2023-04-26T10:04:41;93793.94;;;18.03;51.63
15050;BME280;7622;42.724;23.250;2023-04-26T10:07:11;93744.69;;;17.34;51.74
15050;BME280;7622;42.724;23.250;2023-04-26T10:09:38;93742.97;;;16.82;52.51
15050;BME280;7622;42.724;23.250;2023-04-26T10:12:08;93788.53;;;16.54;52.59
15050;BME280;7622;42.724;23.250;2023-04-26T10:14:35;93747.00;;;16.51;52.45
15050;BME280;7622;42.724;23.250;2023-04-26T10:17:02;93735.28;;;16.28;53.96
15050;BME280;7622;42.724;23.250;2023-04-26T10:19:29;93786.16;;;16.92;55.39
15050;BME280;7622;42.724;23.250;2023-04-26T10:22:00;93733.44;;;15.95;54.92
15050;BME280;7622;42.724;23.250;2023-04-26T10:24:28;93765.13;;;16.46;55.70
15050;BME280;7622;42.724;23.250;2023-04-26T10:26:55;93654.06;;;15.75;55.32
15050;BME280;7622;42.724;23.250;2023-04-26T10:29:24;93735.72;;;16.77;53.87
15050;BME280;7622;42.724;23.250;2023-04-26T10:32:13;93793.75;;;17.40;53.29
15050;BME280;7622;42.724;23.250;2023-04-26T10:34:43;93730.47;;;16.58;52.91
15050;BME280;7622;42.724;23.250;2023-04-26T10:37:11;93785.63;;;17.48;51.46
15050;BME280;7622;42.724;23.250;2023-04-26T10:39:39;93793.78;;;17.20;51.80
15050;BME280;7622;42.724;23.250;2023-04-26T10:42:23;93777.06;;;16.75;51.61
15050;BME280;7622;42.724;23.250;2023-04-26T10:44:53;93779.91;;;16.61;53.33
15050;BME280;7622;42.724;23.250;2023-04-26T10:47:30;93776.69;;;16.72;52.20
15050;BME280;7622;42.724;23.250;2023-04-26T10:50:05;93770.81;;;16.57;52.55
15050;BME280;7622;42.724;23.250;2023-04-26T10:52:33;93780.06;;;16.33;54.21
15050;BME280;7622;42.724;23.250;2023-04-26T10:55:00;93758.31;;;16.52;54.01
15050;BME280;7622;42.724;23.250;2023-04-26T10:57:50;93776.47;;;16.60;51.88
15050;BME280;7622;42.724;23.250;2023-04-26T11:00:29;93755.91;;;16.77;51.23
15050;BME280;7622;42.724;23.250;2023-04-26T11:02:58;93770.28;;;17.45;50.08
15050;BME280;7622;42.724;23.250;2023-04-26T11:05:47;93776.19;;;17.34;50.74
15050;BME280;7622;42.724;23.250;2023-04-26T11:08:17;93765.91;;;17.26;51.22
15050;BME280;7622;42.724;23.250;2023-04-26T11:10:49;93774.94;;;17.37;49.55
15050;BME280;7622;42.724;23.250;2023-04-26T11:13:17;93756.59;;;17.30;49.23
15050;BME280;7622;42.724;23.250;2023-04-26T11:15:46;93770.44;;;17.63;48.53
15050;BME280;7622;42.724;23.250;2023-04-26T11:18:18;93764.09;;;17.26;48.31
15050;BME280;7622;42.724;23.250;2023-04-26T11:20:47;93775.78;;;17.95;47.95
15050;BME280;7622;42.724;23.250;2023-04-26T11:23:17;93759.31;;;17.75;47.87
15050;BME280;7622;42.724;23.250;2023-04-26T11:25:44;93783.81;;;17.55;47.99
15050;BME280;7622;42.724;23.250;2023-04-26T11:28:11;93772.38;;;17.17;48.88
15050;BME280;7622;42.724;23.250;2023-04-26T11:30:38;93769.59;;;16.92;48.19
15050;BME280;7622;42.724;23.250;2023-04-26T11:33:15;93776.41;;;17.19;49.54
15050;BME280;7622;42.724;23.250;2023-04-26T11:35:42;93767.34;;;17.15;49.36
15050;BME280;7622;42.724;23.250;2023-04-26T11:38:10;93777.56;;;17.37;47.10
15050;BME280;7622;42.724;23.250;2023-04-26T11:40:37;93771.47;;;17.62;48.15
15050;BME280;7622;42.724;23.250;2023-04-26T11:43:04;93772.88;;;18.09;47.78
15050;BME280;7622;42.724;23.250;2023-04-26T11:45:32;93766.94;;;17.83;47.18
15050;BME280;7622;42.724;23.250;2023-04-26T11:48:01;93773.56;;;17.34;48.12
15050;BME280;7622;42.724;23.250;2023-04-26T11:50:32;93770.00;;;16.76;48.90
15050;BME280;7622;42.724;23.250;2023-04-26T11:53:05;93768.00;;;16.78;48.23
15050;BME280;7622;42.724;23.250;2023-04-26T11:55:34;93740.97;;;16.71;49.77
15050;BME280;7622;42.724;23.250;2023-04-26T11:58:08;93762.75;;;16.91;50.41
15050;BME280;7622;42.724;23.250;2023-04-26T12:00:35;93776.25;;;16.75;49.34
15050;BME280;7622;42.724;23.250;2023-04-26T12:03:04;93770.00;;;16.76;49.94
15050;BME280;7622;42.724;23.250;2023-04-26T12:05:32;93759.13;;;16.59;50.27
15050;BME280;7622;42.724;23.250;2023-04-26T12:07:59;93769.63;;;16.66;50.83
15050;BME280;7622;42.724;23.250;2023-04-26T12:10:27;93770.38;;;16.53;50.46
15050;BME280;7622;42.724;23.250;2023-04-26T12:12:55;93765.13;;;16.53;49.82
15050;BME280;7622;42.724;23.250;2023-04-26T12:15:25;93752.44;;;16.37;50.95
15050;BME280;7622;42.724;23.250;2023-04-26T12:17:55;93761.09;;;16.18;50.71
15050;BME280;7622;42.724;23.250;2023-04-26T12:20:27;93760.47;;;16.02;50.22
15050;BME280;7622;42.724;23.250;2023-04-26T12:23:02;93756.00;;;15.83;50.17
15050;BME280;7622;42.724;23.250;2023-04-26T12:25:30;93762.06;;;15.97;51.52
15050;BME280;7622;42.724;23.250;2023-04-26T12:27:57;93767.09;;;15.98;51.08
15050;BME280;7622;42.724;23.250;2023-04-26T12:30:25;93747.31;;;15.76;50.95
15050;BME280;7622;42.724;23.250;2023-04-26T12:32:53;93758.63;;;15.90;51.08
15050;BME280;7622;42.724;23.250;2023-04-26T12:35:20;93762.25;;;15.95;50.92
15050;BME280;7622;42.724;23.250;2023-04-26T12:37:48;93730.41;;;15.85;52.95
15050;BME280;7622;42.724;23.250;2023-04-26T12:40:19;93757.19;;;15.87;52.12
15050;BME280;7622;42.724;23.250;2023-04-26T12:42:47;93747.69;;;15.73;51.87
15050;BME280;7622;42.724;23.250;2023-04-26T12:45:14;93755.75;;;15.78;50.74
15050;BME280;7622;42.724;23.250;2023-04-26T12:47:43;93762.78;;;15.71;49.42
15050;BME280;7622;42.724;23.250;2023-04-26T12:50:10;93751.28;;;15.59;49.52
15050;BME280;7622;42.724;23.250;2023-04-26T12:52:38;93756.06;;;15.49;49.88
15050;BME280;7622;42.724;23.250;2023-04-26T12:55:06;93761.97;;;15.29;53.48
15050;BME280;7622;42.724;23.250;2023-04-26T12:57:35;93751.94;;;15.33;54.96
15050;BME280;7622;42.724;23.250;2023-04-26T13:00:02;93761.69;;;15.52;55.62
15050;BME280;7622;42.724;23.250;2023-04-26T13:02:31;93762.22;;;15.34;54.80